Time;durP1;ratioP1;P1;durP2;ratioP2;P2;SDS_P1;SDS_P2;PMS_P1;PMS_P2;Temp;Humidity;BMP_temperature;BMP_pressure;BME280_temperature;BME280_humidity;BME280_pressure;Samples;Min_cycle;Max_cycle;Signal;HPM_P1;HPM_P2
2023/02/07 00:00:05;;;;;;;43.85;20.63;;;;;;;-5.34;77.97;102641.47;5094403;28;20016;-65
2023/02/07 00:02:30;;;;;;;43.83;19.65;;;;;;;-5.38;78.69;102637.91;5089756;28;20032;-66
2023/02/07 00:04:56;;;;;;;46.92;21.55;;;;;;;-5.46;78.65;102622.97;5087311;28;20084;-67
2023/02/07 00:07:21;;;;;;;38.55;19.33;;;;;;;-5.40;79.48;102634.41;5088211;28;20027;-66
2023/02/07 00:09:47;;;;;;;40.45;20.02;;;;;;;-5.56;79.40;102613.25;5101197;28;20084;-66
2023/02/07 00:12:12;;;;;;;38.75;19.08;;;;;;;-5.36;79.73;102636.22;5088177;28;20030;-67
2023/02/07 00:14:38;;;;;;;38.47;17.88;;;;;;;-5.61;79.66;102596.66;5092731;28;20027;-66
2023/02/07 00:17:04;;;;;;;39.70;18.65;;;;;;;-5.34;79.69;102647.56;5099682;28;20039;-66
2023/02/07 00:19:29;;;;;;;40.03;18.48;;;;;;;-5.37;79.19;102644.91;5099244;28;20475;-66
2023/02/07 00:21:54;;;;;;;39.05;18.58;;;;;;;-5.25;79.11;102670.34;5093459;28;20023;-67
2023/02/07 00:24:20;;;;;;;35.60;16.50;;;;;;;-5.23;78.82;102666.00;5089230;28;20016;-66
2023/02/07 00:26:46;;;;;;;36.75;17.10;;;;;;;-5.26;78.32;102659.00;5093014;28;20476;-66
2023/02/07 00:29:12;;;;;;;34.03;16.63;;;;;;;-5.25;78.19;102665.13;5090052;28;20043;-67
2023/02/07 00:31:38;;;;;;;36.10;16.58;;;;;;;-5.26;77.66;102663.34;5093276;28;20483;-67
2023/02/07 00:34:06;;;;;;;37.92;18.30;;;;;;;-5.27;77.69;102666.81;5092547;28;20030;-66
2023/02/07 00:36:33;;;;;;;40.35;18.83;;;;;;;-5.27;77.66;102672.06;5106508;28;20499;-66
2023/02/07 00:39:03;;;;;;;39.17;18.20;;;;;;;-5.30;77.39;102677.25;5105425;28;20482;-66
2023/02/07 00:41:29;;;;;;;36.47;18.08;;;;;;;-5.40;77.59;102660.56;5097376;28;20059;-66
2023/02/07 00:43:58;;;;;;;34.17;18.05;;;;;;;-5.40;77.75;102670.13;5087339;28;20483;-67
2023/02/07 00:46:23;;;;;;;35.60;17.25;;;;;;;-5.29;77.84;102698.19;5093468;28;20024;-70
2023/02/07 00:48:51;;;;;;;36.88;17.38;;;;;;;-5.23;78.54;102703.50;5103610;28;20080;-70
2023/02/07 00:51:16;;;;;;;36.30;16.75;;;;;;;-5.20;78.71;102707.91;5103499;28;20064;-70
2023/02/07 00:53:43;;;;;;;37.00;17.50;;;;;;;-5.23;78.91;102700.00;5105466;28;20415;-70
2023/02/07 00:56:10;;;;;;;36.35;17.30;;;;;;;-5.13;79.43;102691.47;5104281;27;20024;-71
2023/02/07 00:58:36;;;;;;;35.50;17.15;;;;;;;-5.09;79.67;102696.72;5094694;28;20051;-71
2023/02/07 01:01:03;;;;;;;41.22;18.02;;;;;;;-5.04;79.34;102697.69;5082545;28;20039;-71
2023/02/07 01:03:28;;;;;;;32.83;17.15;;;;;;;-5.01;79.49;102692.50;5098253;28;20395;-71
2023/02/07 01:05:54;;;;;;;37.40;18.33;;;;;;;-4.96;79.53;102696.03;5096240;28;20024;-71
2023/02/07 01:08:19;;;;;;;37.45;17.58;;;;;;;-4.95;79.58;102687.34;5101524;28;20104;-71
2023/02/07 01:10:45;;;;;;;42.33;18.17;;;;;;;-4.91;79.42;102683.00;5098447;28;20100;-71
2023/02/07 01:13:12;;;;;;;38.30;16.38;;;;;;;-4.86;79.39;102684.81;5092026;28;20568;-70
2023/02/07 01:15:40;;;;;;;34.10;16.27;;;;;;;-4.84;79.54;102690.06;5071859;28;20158;-69
2023/02/07 01:18:06;;;;;;;35.47;17.42;;;;;;;-4.82;79.00;102694.47;5096158;28;20051;-70
2023/02/07 01:20:32;;;;;;;38.28;15.90;;;;;;;-4.79;78.68;102696.25;5105550;28;20024;-70
2023/02/07 01:22:58;;;;;;;35.92;16.38;;;;;;;-4.81;78.56;102696.22;5092087;28;20539;-70
2023/02/07 01:25:24;;;;;;;31.63;16.73;;;;;;;-4.81;78.56;102691.00;5099861;28;20104;-70
2023/02/07 01:27:50;;;;;;;31.83;15.32;;;;;;;-4.79;77.68;102685.78;5098591;28;20161;-70
2023/02/07 01:30:15;;;;;;;33.35;15.38;;;;;;;-4.81;77.34;102691.00;5091881;28;20098;-71
2023/02/07 01:32:41;;;;;;;32.30;15.88;;;;;;;-4.97;76.83;102660.25;5091122;28;20471;-71
2023/02/07 01:35:07;;;;;;;31.60;16.27;;;;;;;-4.83;77.10;102679.63;5090639;28;20024;-71
2023/02/07 01:37:32;;;;;;;29.85;15.85;;;;;;;-4.96;77.13;102653.31;5073959;28;20095;-72
2023/02/07 01:39:58;;;;;;;36.67;17.20;;;;;;;-4.89;77.14;102666.50;5094669;28;20028;-71
2023/02/07 01:42:26;;;;;;;33.72;16.63;;;;;;;-4.94;76.39;102676.00;5106366;28;20100;-71
2023/02/07 01:45:23;;;;;;;33.13;16.58;;;;;;;-4.99;76.12;102672.44;5107204;28;20055;-71
2023/02/07 01:47:51;;;;;;;35.20;16.92;;;;;;;-5.15;76.13;102649.59;5082817;28;20108;-70
2023/02/07 01:50:17;;;;;;;32.53;15.93;;;;;;;-5.10;76.69;102670.53;5074117;28;20114;-72
2023/02/07 01:52:43;;;;;;;34.33;16.95;;;;;;;-5.13;76.39;102663.53;5112091;27;20127;-70
2023/02/07 01:55:14;;;;;;;35.28;16.60;;;;;;;-5.20;76.23;102650.34;5092694;28;20463;-70
2023/02/07 01:57:42;;;;;;;34.20;17.00;;;;;;;-5.16;76.91;102654.78;5088840;28;20084;-71
2023/02/07 02:00:10;;;;;;;30.40;15.75;;;;;;;-5.28;77.10;102639.81;5093136;28;20898;-71
2023/02/07 02:02:37;;;;;;;32.88;16.55;;;;;;;-5.28;76.77;102644.16;5074180;28;20436;-66
2023/02/07 02:05:03;;;;;;;34.42;15.98;;;;;;;-5.25;77.04;102659.91;5070667;28;20032;-65
2023/02/07 02:07:31;;;;;;;31.08;15.15;;;;;;;-5.33;76.42;102648.44;5101636;28;20032;-65
2023/02/07 02:09:58;;;;;;;34.85;16.58;;;;;;;-5.41;76.89;102647.47;5095099;28;20467;-66
2023/02/07 02:12:42;;;;;;;34.90;15.95;;;;;;;-5.38;77.12;102652.75;5091079;28;20028;-65
2023/02/07 02:15:10;;;;;;;;;;;;;;;-5.40;77.45;102657.06;5092000;27;20424;-65
2023/02/07 02:17:57;;;;;;;35.10;15.63;;;;;;;-5.46;77.31;102652.63;5092014;28;20018;-65
2023/02/07 02:20:57;;;;;;;35.05;16.65;;;;;;;-5.49;77.01;102649.97;5081768;28;20031;-65
2023/02/07 02:23:50;;;;;;;36.45;16.63;;;;;;;-5.52;77.66;102655.16;5094026;28;20020;-70
2023/02/07 02:26:46;;;;;;;40.67;17.55;;;;;;;-5.72;76.82;102630.47;5094950;28;20958;-70
2023/02/07 02:29:20;;;;;;;33.13;16.38;;;;;;;-5.59;77.11;102648.06;5098829;28;20080;-70
2023/02/07 02:32:19;;;;;;;36.03;16.85;;;;;;;-5.65;76.25;102642.75;5101796;28;20076;-70
2023/02/07 02:34:55;;;;;;;42.00;17.20;;;;;;;-5.71;76.67;102649.63;5087608;28;20038;-70
2023/02/07 02:37:32;;;;;;;39.13;16.70;;;;;;;-5.75;76.58;102647.81;5088484;28;20036;-71
2023/02/07 02:40:18;;;;;;;35.13;17.02;;;;;;;-5.80;76.55;102659.94;5100215;28;20094;-70
2023/02/07 02:42:58;;;;;;;36.67;17.60;;;;;;;-5.92;76.77;102644.09;5095016;28;20035;-70
2023/02/07 02:45:33;;;;;;;40.00;17.08;;;;;;;-5.94;77.20;102644.06;5097589;28;20034;-70
2023/02/07 02:48:01;;;;;;;40.95;17.88;;;;;;;-5.87;77.38;102665.97;5083186;28;20036;-69
2023/02/07 02:50:29;;;;;;;40.80;18.17;;;;;;;-5.91;77.22;102658.91;5091190;28;20031;-70
2023/02/07 02:52:55;;;;;;;36.95;16.92;;;;;;;-6.00;78.10;102651.81;5104222;28;20027;-69
2023/02/07 02:56:09;;;;;;;40.05;18.88;;;;;;;-5.95;77.71;102658.00;5104358;28;20039;-70
2023/02/07 02:58:46;;;;;;;41.50;17.60;;;;;;;-5.99;77.24;102664.03;5082267;28;20052;-70
2023/02/07 03:01:34;;;;;;;37.95;17.15;;;;;;;-6.01;77.58;102677.91;5087635;28;20027;-66
2023/02/07 03:04:12;;;;;;;39.15;17.88;;;;;;;-6.07;76.87;102656.91;5101767;28;20586;-66
2023/02/07 03:06:46;;;;;;;40.28;17.52;;;;;;;-6.08;76.39;102660.38;5106130;28;20050;-65
2023/02/07 03:09:39;;;;;;;38.55;18.05;;;;;;;-6.13;76.79;102659.44;5088930;28;20063;-65
2023/02/07 03:12:23;;;;;;;38.65;17.13;;;;;;;-6.15;77.19;102662.00;5074794;28;20114;-66
2023/02/07 03:14:51;;;;;;;;;;;;;;;-6.19;76.79;102662.78;5097157;28;20031;-66
2023/02/07 03:17:33;;;;;;;40.65;17.27;;;;;;;-6.19;77.04;102662.78;5082915;28;19919;-65
2023/02/07 03:20:25;;;;;;;39.30;17.20;;;;;;;-6.23;77.82;102663.59;5088388;28;20116;-65
2023/02/07 03:22:52;;;;;;;39.38;17.48;;;;;;;-6.23;77.45;102670.56;5090396;28;20084;-66
2023/02/07 03:25:20;;;;;;;38.15;18.02;;;;;;;-6.32;77.88;102666.03;5083631;28;20039;-66
2023/02/07 03:27:47;;;;;;;42.65;17.02;;;;;;;-6.45;77.24;102652.75;5090993;28;20507;-66
2023/02/07 03:30:16;;;;;;;39.38;17.95;;;;;;;-6.38;77.87;102665.06;5087840;28;20052;-65
2023/02/07 03:32:49;;;;;;;40.33;18.92;;;;;;;-6.37;78.10;102666.81;5074994;28;20028;-65
2023/02/07 03:35:24;;;;;;;31.27;14.52;;;;;;;-6.38;77.84;102670.28;5091415;28;20024;-65
2023/02/07 03:37:56;;;;;;;44.53;19.08;;;;;;;-6.44;77.74;102671.06;5092732;28;20104;-65
2023/02/07 03:40:27;;;;;;;41.08;18.60;;;;;;;-6.47;78.24;102667.50;5088174;28;20476;-65
2023/02/07 03:43:03;;;;;;;40.38;17.63;;;;;;;-6.46;78.91;102675.34;5095714;28;20530;-65
2023/02/07 03:45:29;;;;;;;45.33;18.48;;;;;;;-6.48;79.18;102670.97;5096107;28;20035;-64
2023/02/07 03:47:54;;;;;;;43.53;18.45;;;;;;;-6.50;78.93;102670.94;5111117;28;20026;-65
2023/02/07 03:50:20;;;;;;;41.22;19.50;;;;;;;-6.64;79.14;102650.66;5092912;28;20031;-66
2023/02/07 03:52:45;;;;;;;45.35;20.42;;;;;;;-6.57;79.38;102661.25;5097380;28;20055;-66
2023/02/07 03:55:11;;;;;;;46.65;20.33;;;;;;;-6.62;78.79;102656.78;5092556;28;20811;-66
2023/02/07 03:57:36;;;;;;;41.00;18.67;;;;;;;-6.83;79.52;102619.84;5081143;28;20060;-66
2023/02/07 04:00:03;;;;;;;44.22;19.90;;;;;;;-6.59;79.45;102669.88;5098149;28;20070;-66
2023/02/07 04:02:29;;;;;;;42.22;19.20;;;;;;;-6.63;78.90;102662.84;5087678;28;20043;-65
2023/02/07 04:04:54;;;;;;;39.85;19.45;;;;;;;-6.66;78.58;102668.88;5104262;28;20019;-66
2023/02/07 04:07:20;;;;;;;38.78;17.20;;;;;;;-6.70;78.80;102656.66;5088367;28;20039;-65
2023/02/07 04:09:45;;;;;;;49.60;20.80;;;;;;;-6.67;79.36;102668.84;5094406;28;20080;-65
2023/02/07 04:12:10;;;;;;;47.15;19.17;;;;;;;-6.79;79.11;102642.53;5095843;28;20130;-65
2023/02/07 04:14:36;;;;;;;49.08;21.35;;;;;;;-6.72;80.15;102660.94;5092637;28;20027;-65
2023/02/07 04:17:01;;;;;;;45.28;20.25;;;;;;;-6.65;81.03;102657.59;5091162;28;20052;-65
2023/02/07 04:19:27;;;;;;;47.05;20.85;;;;;;;-6.65;81.58;102652.38;5096898;28;20495;-65
2023/02/07 04:21:52;;;;;;;47.05;21.17;;;;;;;-6.64;81.37;102650.66;5093079;28;20047;-64
2023/02/07 04:24:18;;;;;;;50.13;19.88;;;;;;;-6.61;81.54;102662.00;5096838;28;20016;-64
2023/02/07 04:26:43;;;;;;;45.75;20.42;;;;;;;-6.67;80.87;102656.69;5093579;28;20044;-64
2023/02/07 04:29:09;;;;;;;46.15;19.38;;;;;;;-6.67;80.63;102650.59;5104801;28;20039;-66
2023/02/07 04:31:36;;;;;;;47.88;20.60;;;;;;;-6.66;80.98;102644.50;5095824;28;20051;-65
2023/02/07 04:34:02;;;;;;;41.35;19.95;;;;;;;-6.75;81.09;102639.16;5104462;28;20031;-65
2023/02/07 04:36:28;;;;;;;47.25;21.00;;;;;;;-6.67;80.13;102650.59;5086606;28;20502;-65
2023/02/07 04:38:54;;;;;;;45.70;20.05;;;;;;;-6.70;80.48;102659.25;5104542;28;20058;-65
2023/02/07 04:41:19;;;;;;;42.72;19.90;;;;;;;-6.68;80.38;102657.53;5098732;28;20024;-65
2023/02/07 04:43:45;;;;;;;51.90;22.70;;;;;;;-6.67;80.20;102654.09;5094198;28;20026;-65
2023/02/07 04:46:10;;;;;;;43.83;20.83;;;;;;;-6.73;81.21;102646.16;5099921;28;20032;-66
2023/02/07 04:48:36;;;;;;;43.75;20.40;;;;;;;-6.63;81.82;102652.41;5071121;27;20035;-66
2023/02/07 04:51:02;;;;;;;47.30;21.42;;;;;;;-6.65;81.45;102635.88;5092049;27;20123;-65
2023/02/07 04:53:28;;;;;;;48.85;21.10;;;;;;;-6.57;81.80;102656.03;5073834;28;20032;-64
2023/02/07 04:55:54;;;;;;;47.67;22.70;;;;;;;-6.46;82.60;102666.63;5093627;28;20088;-65
2023/02/07 04:58:20;;;;;;;49.60;22.73;;;;;;;-6.41;82.86;102675.44;5098204;28;20031;-65
2023/02/07 05:00:46;;;;;;;50.90;23.35;;;;;;;-6.43;83.73;102667.59;5103683;28;20040;-65
2023/02/07 05:03:12;;;;;;;59.05;24.77;;;;;;;-6.38;84.00;102675.50;5104736;28;20090;-65
2023/02/07 05:05:39;;;;;;;50.03;22.42;;;;;;;-6.42;84.28;102671.94;5095528;28;20085;-65
2023/02/07 05:08:04;;;;;;;51.08;23.80;;;;;;;-6.34;83.21;102678.19;5092469;28;20050;-65
2023/02/07 05:10:30;;;;;;;48.63;22.70;;;;;;;-6.35;82.34;102672.94;5093475;28;20032;-65
2023/02/07 05:12:55;;;;;;;46.97;22.05;;;;;;;-6.35;82.00;102681.69;5094282;28;20491;-65
2023/02/07 05:15:21;;;;;;;55.20;23.45;;;;;;;-6.39;81.91;102690.28;5093832;28;20038;-65
2023/02/07 05:17:47;;;;;;;51.28;23.50;;;;;;;-6.32;82.67;102697.34;5090765;28;20050;-65
2023/02/07 05:20:13;;;;;;;56.70;23.80;;;;;;;-6.29;82.62;102693.94;5091491;28;20062;-64
2023/02/07 05:22:38;;;;;;;57.75;24.77;;;;;;;-6.23;83.45;102688.84;5090883;28;20708;-65
2023/02/07 05:25:04;;;;;;;51.17;23.65;;;;;;;-6.09;84.51;102696.06;5096861;28;20046;-65
2023/02/07 05:27:30;;;;;;;57.20;24.27;;;;;;;-5.88;85.22;102698.16;5097918;28;20035;-65
2023/02/07 05:29:55;;;;;;;56.35;24.33;;;;;;;-5.81;85.68;102710.47;5098952;28;20123;-64
2023/02/07 05:35:24;;;;;;;36.27;16.37;;;;;;;-5.89;85.62;102712.06;5059889;28;20039;-66
2023/02/07 05:37:49;;;;;;;49.38;22.30;;;;;;;-5.94;85.07;102687.63;5060548;28;20285;-66
2023/02/07 05:40:15;;;;;;;54.70;23.25;;;;;;;-5.88;84.01;102717.31;5069323;28;20066;-65
2023/02/07 05:42:41;;;;;;;52.53;22.10;;;;;;;-5.90;84.07;102697.25;5096025;27;20514;-65
2023/02/07 05:45:07;;;;;;;48.55;23.48;;;;;;;-5.89;83.97;102704.22;5097624;27;20085;-64
2023/02/07 05:47:33;;;;;;;48.97;24.15;;;;;;;-5.91;84.23;102698.09;5091725;27;20031;-65
2023/02/07 05:49:59;;;;;;;55.55;24.13;;;;;;;-5.97;84.02;102679.72;5096606;28;20020;-66
2023/02/07 05:52:24;;;;;;;50.85;23.48;;;;;;;-5.88;83.48;102709.50;5092400;28;20144;-65
2023/02/07 05:54:50;;;;;;;55.58;23.38;;;;;;;-5.85;83.08;102712.16;5090209;28;20032;-65
2023/02/07 05:57:15;;;;;;;59.75;25.65;;;;;;;-5.87;82.74;102705.16;5086545;28;20050;-65
2023/02/07 05:59:41;;;;;;;50.55;23.38;;;;;;;-5.88;82.73;102708.59;5097351;28;20050;-66
2023/02/07 06:02:06;;;;;;;48.70;23.05;;;;;;;-5.89;82.23;102718.19;5092890;27;20063;-66
2023/02/07 06:04:31;;;;;;;55.92;24.10;;;;;;;-5.88;82.40;102726.88;5093997;27;20129;-66
2023/02/07 06:06:57;;;;;;;55.50;25.42;;;;;;;-5.90;81.84;102726.84;5089043;28;20031;-66
2023/02/07 06:09:22;;;;;;;52.03;23.85;;;;;;;-5.97;81.65;102718.91;5088174;28;20035;-66
2023/02/07 06:11:48;;;;;;;48.17;23.20;;;;;;;-6.16;81.69;102691.56;5094095;28;20032;-65
2023/02/07 06:14:14;;;;;;;50.38;23.27;;;;;;;-6.00;81.85;102726.69;5087765;28;20433;-66
2023/02/07 06:16:40;;;;;;;53.72;21.92;;;;;;;-6.00;82.05;102732.78;5090954;28;20756;-66
2023/02/07 06:19:05;;;;;;;55.90;24.33;;;;;;;-5.99;82.11;102731.06;5094661;28;20027;-66
2023/02/07 06:21:31;;;;;;;45.83;23.10;;;;;;;-6.03;82.63;102731.84;5100919;27;20651;-65
2023/02/07 06:23:56;;;;;;;48.10;22.77;;;;;;;-6.05;82.32;102739.66;5074869;28;20034;-66
2023/02/07 06:26:21;;;;;;;53.45;25.15;;;;;;;-6.07;82.13;102727.41;5093016;27;20026;-64
2023/02/07 06:28:47;;;;;;;52.00;23.52;;;;;;;-6.04;81.99;102736.19;5089789;28;20059;-65
2023/02/07 06:31:12;;;;;;;49.17;22.42;;;;;;;-6.09;82.07;102726.53;5083883;27;20048;-65
2023/02/07 06:33:38;;;;;;;63.20;25.83;;;;;;;-6.03;82.24;102737.09;5092729;28;20039;-67
2023/02/07 06:36:04;;;;;;;59.28;24.90;;;;;;;-6.01;82.84;102732.75;5076556;28;20032;-65
2023/02/07 06:38:29;;;;;;;58.85;25.02;;;;;;;-6.00;83.38;102729.31;5091041;27;20028;-65
2023/02/07 06:40:55;;;;;;;62.33;26.35;;;;;;;-5.96;83.86;102733.72;5092604;27;20019;-66
2023/02/07 06:43:20;;;;;;;64.07;27.17;;;;;;;-5.95;84.50;102722.41;5088708;28;20392;-64
2023/02/07 06:45:46;;;;;;;60.08;27.23;;;;;;;-5.77;85.26;102744.47;5089330;27;20027;-65
2023/02/07 06:48:11;;;;;;;63.50;26.95;;;;;;;-5.69;85.54;102736.75;5070286;28;20046;-65
2023/02/07 06:50:37;;;;;;;76.22;30.05;;;;;;;-5.57;86.08;102739.59;5079408;28;20829;-66
2023/02/07 06:53:02;;;;;;;71.40;29.10;;;;;;;-5.50;86.70;102742.31;5089693;28;20571;-65
2023/02/07 06:55:34;;;;;;;69.50;30.83;;;;;;;-5.38;86.91;102741.63;5076879;28;20084;-66
2023/02/07 06:57:59;;;;;;;67.68;31.38;;;;;;;-5.28;87.10;102739.19;5099486;28;20731;-65
2023/02/07 07:00:25;;;;;;;73.93;32.85;;;;;;;-5.22;87.45;102720.94;5086817;28;20043;-65
2023/02/07 07:02:51;;;;;;;79.95;33.55;;;;;;;-5.09;87.46;102717.66;5087928;28;20076;-65
2023/02/07 07:05:17;;;;;;;78.28;35.17;;;;;;;-4.96;87.75;102716.97;5104807;28;20020;-65
2023/02/07 07:07:43;;;;;;;87.22;34.63;;;;;;;-4.89;87.35;102717.94;5099855;28;20034;-65
2023/02/07 07:10:09;;;;;;;80.32;34.38;;;;;;;-4.73;87.30;102722.50;5077343;28;20028;-65
2023/02/07 07:12:35;;;;;;;75.80;33.05;;;;;;;-4.63;87.09;102727.00;5093678;28;20130;-70
2023/02/07 07:15:00;;;;;;;70.57;32.92;;;;;;;-4.54;86.56;102714.03;5096425;28;20019;-65
2023/02/07 07:17:25;;;;;;;78.20;34.95;;;;;;;-4.45;86.13;102716.72;5079764;28;20036;-65
2023/02/07 07:19:51;;;;;;;81.90;32.95;;;;;;;-4.38;85.27;102713.34;5090075;28;20058;-65
2023/02/07 07:22:17;;;;;;;72.65;31.60;;;;;;;-4.28;84.69;102711.69;5101120;28;20031;-66
2023/02/07 07:24:42;;;;;;;79.05;33.45;;;;;;;-4.16;84.31;102722.28;5106054;28;20067;-65
2023/02/07 07:27:08;;;;;;;76.57;34.35;;;;;;;-4.08;84.06;102708.41;5098585;28;20030;-70
2023/02/07 07:29:33;;;;;;;80.30;36.25;;;;;;;-3.99;83.80;102697.13;5100316;28;20039;-70
2023/02/07 07:31:59;;;;;;;80.45;33.63;;;;;;;-3.92;82.93;102694.56;5092280;28;20027;-70
2023/02/07 07:34:24;;;;;;;77.55;33.78;;;;;;;-3.74;82.63;102710.44;5090783;28;20028;-70
2023/02/07 07:36:52;;;;;;;75.45;32.33;;;;;;;-3.62;82.54;102705.31;5072770;28;20024;-70
2023/02/07 07:39:19;;;;;;;83.93;37.53;;;;;;;-3.51;81.97;102702.78;5091188;28;20812;-70
2023/02/07 07:41:45;;;;;;;109.50;40.30;;;;;;;-3.36;81.91;102706.38;5099887;28;20034;-70
2023/02/07 07:44:10;;;;;;;94.68;40.42;;;;;;;-3.28;80.93;102707.31;5093789;28;20071;-70
2023/02/07 07:46:36;;;;;;;82.55;37.75;;;;;;;-3.16;80.89;102710.00;5088561;28;20028;-70
2023/02/07 07:49:01;;;;;;;83.43;38.85;;;;;;;-3.07;79.70;102701.31;5090802;28;20493;-70
2023/02/07 07:51:26;;;;;;;79.97;35.10;;;;;;;-2.99;80.39;102711.00;5097197;28;20496;-71
2023/02/07 07:53:52;;;;;;;72.85;33.28;;;;;;;-2.92;79.84;102710.16;5093490;28;20024;-71
2023/02/07 07:56:17;;;;;;;80.15;33.08;;;;;;;-2.80;79.96;102715.44;5092622;28;20027;-71
2023/02/07 07:58:43;;;;;;;63.05;30.70;;;;;;;-2.65;80.21;102719.88;5089806;28;20036;-71
2023/02/07 08:01:08;;;;;;;64.63;29.20;;;;;;;-2.54;79.93;102715.56;5101988;28;20024;-71
2023/02/07 08:03:34;;;;;;;53.55;26.67;;;;;;;-2.37;78.18;102722.66;5093561;28;20095;-71
2023/02/07 08:05:59;;;;;;;55.25;27.95;;;;;;;-2.31;77.59;102719.16;5096263;28;20060;-70
2023/02/07 08:08:25;;;;;;;56.67;27.77;;;;;;;-2.27;77.12;102720.91;5097231;28;20115;-71
2023/02/07 08:10:50;;;;;;;53.97;26.17;;;;;;;-2.16;76.21;102718.31;5091443;28;20030;-71
2023/02/07 08:13:16;;;;;;;51.95;25.52;;;;;;;-1.98;73.35;102721.84;5110209;28;20168;-70
2023/02/07 08:15:42;;;;;;;46.97;23.75;;;;;;;-1.99;73.86;102709.59;5107570;27;20043;-70
2023/02/07 08:18:08;;;;;;;45.95;24.35;;;;;;;-1.85;71.79;102709.59;5105856;28;20063;-67
2023/02/07 08:20:33;;;;;;;48.67;25.70;;;;;;;-1.79;71.72;102723.63;5105563;28;20035;-66
2023/02/07 08:22:59;;;;;;;48.78;24.45;;;;;;;-1.78;72.46;102714.00;5092800;28;20082;-67
2023/02/07 08:25:25;;;;;;;47.67;23.92;;;;;;;-1.54;70.53;102725.41;5092202;28;20108;-66
2023/02/07 08:27:52;;;;;;;46.92;24.27;;;;;;;-1.49;69.73;102715.72;5101558;28;20512;-66
2023/02/07 08:30:18;;;;;;;53.45;24.02;;;;;;;-1.34;68.58;102701.69;5099137;28;20032;-66
2023/02/07 08:32:43;;;;;;;47.67;23.65;;;;;;;-1.50;69.06;102705.22;5099570;28;20023;-66
2023/02/07 08:35:09;;;;;;;51.83;24.38;;;;;;;-1.43;69.68;102705.22;5102923;28;20027;-67
2023/02/07 08:37:34;;;;;;;49.42;24.23;;;;;;;-1.41;70.10;102721.00;5098757;28;20852;-67
2023/02/07 08:40:00;;;;;;;46.78;23.60;;;;;;;-1.47;70.20;102734.16;5089697;28;20020;-67
2023/02/07 08:42:26;;;;;;;45.45;23.63;;;;;;;-1.50;69.81;102707.84;5091346;28;20035;-67
2023/02/07 08:44:51;;;;;;;49.72;23.75;;;;;;;-1.42;69.36;102717.47;5094869;28;20050;-67
2023/02/07 08:47:17;;;;;;;46.47;23.30;;;;;;;-1.53;69.31;102703.47;5091387;28;20039;-67
2023/02/07 08:49:43;;;;;;;43.83;22.75;;;;;;;-1.38;69.44;102732.41;5072001;28;20031;-67
2023/02/07 08:52:10;;;;;;;45.55;23.88;;;;;;;-1.41;70.18;102727.16;5105245;28;20040;-71
2023/02/07 08:54:35;;;;;;;42.22;21.88;;;;;;;-1.34;68.65;102721.00;5099279;28;20180;-72
2023/02/07 08:57:01;;;;;;;45.10;23.98;;;;;;;-1.32;68.55;102732.38;5092265;28;20579;-71
2023/02/07 08:59:27;;;;;;;53.88;23.90;;;;;;;-1.23;68.92;102723.63;5093486;28;20031;-72
2023/02/07 09:01:52;;;;;;;47.90;24.42;;;;;;;-1.09;68.38;102732.38;5093634;28;20046;-72
2023/02/07 09:04:18;;;;;;;44.60;23.45;;;;;;;-1.15;68.78;102729.75;5108870;28;20019;-72
2023/02/07 09:06:43;;;;;;;51.15;24.88;;;;;;;-1.10;69.63;102738.53;5093740;28;20041;-72
2023/02/07 09:09:09;;;;;;;50.97;25.30;;;;;;;-1.04;69.07;102739.38;5098201;27;20241;-72
2023/02/07 09:11:35;;;;;;;58.55;27.35;;;;;;;-1.02;69.58;102734.09;5108391;27;20035;-72
2023/02/07 09:14:01;;;;;;;45.88;23.45;;;;;;;-0.88;67.32;102713.88;5095951;28;20061;-72
2023/02/07 09:16:26;;;;;;;45.70;23.85;;;;;;;-0.79;67.18;102722.63;5076199;28;20177;-72
2023/02/07 09:18:52;;;;;;;46.20;24.10;;;;;;;-0.52;66.00;102722.53;5097903;28;20032;-72
2023/02/07 09:21:18;;;;;;;41.40;22.50;;;;;;;-0.48;66.30;102726.03;5080106;28;20481;-72
2023/02/07 09:23:44;;;;;;;47.72;23.60;;;;;;;-0.36;66.51;102728.59;5101362;28;20395;-72
2023/02/07 09:26:16;;;;;;;51.15;25.00;;;;;;;-0.22;66.13;102737.34;5098736;28;20035;-72
2023/02/07 09:28:41;;;;;;;42.72;21.02;;;;;;;-0.06;65.75;102733.72;5100946;28;20028;-72
2023/02/07 09:31:09;;;;;;;34.10;18.35;;;;;;;0.20;62.25;102736.19;5096139;28;20547;-72
2023/02/07 09:33:35;;;;;;;35.72;18.10;;;;;;;0.42;61.24;102733.34;5095039;28;20030;-72
2023/02/07 09:36:01;;;;;;;34.55;17.88;;;;;;;0.39;61.36;102722.84;5099140;28;20481;-68
2023/02/07 09:38:27;;;;;;;29.77;16.40;;;;;;;0.74;57.56;102712.84;5090472;28;20074;-68
2023/02/07 09:40:53;;;;;;;32.00;16.98;;;;;;;0.78;58.57;102708.41;5103319;28;20035;-68
2023/02/07 09:43:31;;;;;;;29.98;15.55;;;;;;;1.07;58.23;102733.66;5098321;28;20077;-68
2023/02/07 09:46:01;;;;;;;23.98;13.80;;;;;;;1.02;57.48;102709.03;5091204;28;20035;-68
2023/02/07 09:48:49;;;;;;;22.42;13.25;;;;;;;1.41;54.71;102739.41;5095361;28;20023;-68
2023/02/07 09:51:19;;;;;;;30.80;14.98;;;;;;;1.51;55.01;102730.47;5076445;28;20097;-73
2023/02/07 09:53:57;;;;;;;26.20;14.73;;;;;;;1.66;54.22;102727.66;5090137;28;20020;-72
2023/02/07 09:56:26;;;;;;;23.88;12.85;;;;;;;1.76;52.49;102731.94;5077917;28;20050;-72
2023/02/07 09:59:22;;;;;;;22.20;14.25;;;;;;;1.85;52.24;102730.03;5098028;28;20039;-72
2023/02/07 10:01:51;;;;;;;19.70;12.13;;;;;;;1.99;51.97;102721.88;5097814;27;20055;-72
2023/02/07 10:04:20;;;;;;;22.92;13.07;;;;;;;2.17;49.96;102726.94;5095415;28;20047;-73
2023/02/07 10:06:55;;;;;;;21.10;12.68;;;;;;;2.22;49.46;102728.59;5077369;28;20066;-72
2023/02/07 10:09:26;;;;;;;21.55;13.57;;;;;;;2.20;50.48;102717.16;5096960;28;20032;-73
2023/02/07 10:12:12;;;;;;;26.35;13.75;;;;;;;2.38;50.02;102723.09;5094183;28;20106;-72
2023/02/07 10:14:38;;;;;;;21.48;13.07;;;;;;;2.39;49.71;102718.63;5099564;28;20483;-72
2023/02/07 10:17:19;;;;;;;22.70;13.73;;;;;;;2.65;48.53;102714.66;5088728;28;20131;-72
2023/02/07 10:20:08;;;;;;;23.35;13.18;;;;;;;2.56;49.21;102706.88;5104755;28;20023;-72
2023/02/07 10:22:59;;;;;;;20.80;12.95;;;;;;;2.53;48.91;102714.88;5073872;28;20142;-72
2023/02/07 10:25:34;;;;;;;25.27;11.98;;;;;;;2.32;49.02;102694.91;5074419;28;20049;-70
2023/02/07 10:28:02;;;;;;;18.63;10.75;;;;;;;2.24;48.15;102708.28;5089331;28;20084;-71
2023/02/07 10:30:32;;;;;;;15.73;9.75;;;;;;;2.09;48.97;102686.44;5101639;27;20032;-71
2023/02/07 10:33:13;;;;;;;22.70;11.20;;;;;;;2.10;49.43;102697.00;5092040;28;20144;-72
2023/02/07 10:35:39;;;;;;;18.75;11.20;;;;;;;2.16;48.60;102701.38;5072140;28;20024;-71
2023/02/07 10:38:20;;;;;;;17.98;10.73;;;;;;;2.14;48.49;102701.38;5103094;28;20027;-71
2023/02/07 10:40:55;;;;;;;19.00;10.40;;;;;;;2.20;49.00;102698.63;5099899;28;20031;-71
2023/02/07 10:43:33;;;;;;;20.35;11.90;;;;;;;2.20;47.44;102673.94;5102680;27;20104;-71
2023/02/07 10:46:04;;;;;;;17.85;10.80;;;;;;;2.48;46.32;102661.13;5095649;28;20023;-72
2023/02/07 10:48:31;;;;;;;23.63;12.20;;;;;;;2.31;47.73;102672.88;5094322;28;20503;-72
2023/02/07 10:51:33;;;;;;;25.23;12.73;;;;;;;2.25;47.94;102675.59;5069764;27;20395;-69
2023/02/07 10:54:11;;;;;;;25.45;13.48;;;;;;;2.20;48.16;102674.78;5072855;28;20190;-68
2023/02/07 10:56:58;;;;;;;29.63;15.00;;;;;;;2.17;48.36;102680.13;5069911;28;20028;-68
2023/02/07 10:59:50;;;;;;;25.38;14.95;;;;;;;2.13;49.01;102672.28;5073583;28;20162;-68
2023/02/07 11:02:27;;;;;;;28.70;15.13;;;;;;;2.15;48.95;102675.78;5067862;28;20472;-67
2023/02/07 11:04:54;;;;;;;24.42;13.85;;;;;;;2.07;49.28;102662.66;5076743;28;20449;-67
2023/02/07 11:07:20;;;;;;;25.60;14.85;;;;;;;1.85;49.44;102639.19;5085659;28;20028;-68
2023/02/07 11:09:47;;;;;;;29.33;15.93;;;;;;;1.92;49.60;102667.31;5084421;28;20028;-68
2023/02/07 11:12:26;;;;;;;29.35;16.17;;;;;;;1.81;50.53;102642.81;5072525;28;20048;-67
2023/02/07 11:15:07;;;;;;;26.70;15.38;;;;;;;1.90;50.95;102662.03;5081650;28;20028;-68
2023/02/07 11:17:33;;;;;;;30.02;15.30;;;;;;;1.80;50.05;102670.13;5076909;28;20036;-68
2023/02/07 11:20:06;;;;;;;25.60;13.43;;;;;;;1.76;49.31;102664.03;5066375;28;20402;-68
2023/02/07 11:22:32;;;;;;;28.65;15.65;;;;;;;1.77;49.18;102660.47;5070904;28;20034;-68